sensor_id;sensor_type;location;lat;lon;timestamp;P1;durP1;ratioP1;P2;durP2;ratioP2
51298;SDS011;37382;45.192;9.790;2023-02-28T05:07:00;12.38;;;8.35;;
51298;SDS011;37382;45.192;9.790;2023-02-28T05:09:28;15.38;;;9.82;;
51298;SDS011;37382;45.192;9.790;2023-02-28T05:11:56;16.30;;;9.60;;
51298;SDS011;37382;45.192;9.790;2023-02-28T05:14:25;14.95;;;9.48;;
51298;SDS011;37382;45.192;9.790;2023-02-28T05:16:52;15.23;;;8.68;;
51298;SDS011;37382;45.192;9.790;2023-02-28T05:19:20;18.13;;;9.60;;
51298;SDS011;37382;45.192;9.790;2023-02-28T05:21:50;18.10;;;10.07;;
51298;SDS011;37382;45.192;9.790;2023-02-28T05:24:19;15.27;;;9.20;;
51298;SDS011;37382;45.192;9.790;2023-02-28T05:26:50;13.23;;;9.05;;
51298;SDS011;37382;45.192;9.790;2023-02-28T05:29:20;19.13;;;9.60;;
51298;SDS011;37382;45.192;9.790;2023-02-28T05:31:48;12.43;;;8.75;;
51298;SDS011;37382;45.192;9.790;2023-02-28T05:34:15;13.95;;;9.45;;
51298;SDS011;37382;45.192;9.790;2023-02-28T05:36:43;12.65;;;9.45;;
51298;SDS011;37382;45.192;9.790;2023-02-28T05:39:11;13.25;;;8.73;;
51298;SDS011;37382;45.192;9.790;2023-02-28T05:41:43;14.25;;;8.25;;
51298;SDS011;37382;45.192;9.790;2023-02-28T05:44:10;15.75;;;9.80;;
51298;SDS011;37382;45.192;9.790;2023-02-28T05:46:38;12.43;;;9.93;;
51298;SDS011;37382;45.192;9.790;2023-02-28T05:49:06;16.75;;;9.18;;
51298;SDS011;37382;45.192;9.790;2023-02-28T05:51:34;12.32;;;9.10;;
51298;SDS011;37382;45.192;9.790;2023-02-28T05:54:03;12.60;;;8.23;;
51298;SDS011;37382;45.192;9.790;2023-02-28T05:56:31;11.02;;;8.40;;
51298;SDS011;37382;45.192;9.790;2023-02-28T05:59:01;13.85;;;9.07;;
51298;SDS011;37382;45.192;9.790;2023-02-28T06:01:35;11.85;;;8.55;;
51298;SDS011;37382;45.192;9.790;2023-02-28T06:04:07;13.30;;;8.13;;
51298;SDS011;37382;45.192;9.790;2023-02-28T06:06:51;20.75;;;9.15;;
51298;SDS011;37382;45.192;9.790;2023-02-28T06:09:19;15.63;;;9.25;;
51298;SDS011;37382;45.192;9.790;2023-02-28T06:11:47;12.85;;;8.80;;
51298;SDS011;37382;45.192;9.790;2023-02-28T06:14:16;13.43;;;9.10;;
51298;SDS011;37382;45.192;9.790;2023-02-28T06:16:44;15.50;;;9.10;;
51298;SDS011;37382;45.192;9.790;2023-02-28T06:19:12;19.23;;;12.32;;
51298;SDS011;37382;45.192;9.790;2023-02-28T06:21:40;19.17;;;11.30;;
51298;SDS011;37382;45.192;9.790;2023-02-28T06:24:08;14.60;;;10.10;;
51298;SDS011;37382;45.192;9.790;2023-02-28T06:26:36;16.23;;;11.10;;
51298;SDS011;37382;45.192;9.790;2023-02-28T06:29:03;23.52;;;14.07;;
51298;SDS011;37382;45.192;9.790;2023-02-28T06:31:31;19.52;;;12.55;;
51298;SDS011;37382;45.192;9.790;2023-02-28T06:33:58;21.50;;;14.38;;
51298;SDS011;37382;45.192;9.790;2023-02-28T06:36:26;22.30;;;14.70;;
51298;SDS011;37382;45.192;9.790;2023-02-28T06:38:54;50.15;;;24.25;;
51298;SDS011;37382;45.192;9.790;2023-02-28T06:41:23;23.10;;;13.35;;
51298;SDS011;37382;45.192;9.790;2023-02-28T06:43:52;26.65;;;15.70;;
51298;SDS011;37382;45.192;9.790;2023-02-28T06:46:20;35.25;;;22.08;;
51298;SDS011;37382;45.192;9.790;2023-02-28T06:48:48;22.92;;;14.93;;
51298;SDS011;37382;45.192;9.790;2023-02-28T06:51:17;35.92;;;17.80;;
51298;SDS011;37382;45.192;9.790;2023-02-28T06:53:49;18.15;;;11.55;;
51298;SDS011;37382;45.192;9.790;2023-02-28T06:56:18;21.70;;;13.45;;
51298;SDS011;37382;45.192;9.790;2023-02-28T06:58:50;23.60;;;14.77;;
51298;SDS011;37382;45.192;9.790;2023-02-28T07:01:20;26.77;;;13.50;;
51298;SDS011;37382;45.192;9.790;2023-02-28T07:03:50;25.05;;;13.85;;
51298;SDS011;37382;45.192;9.790;2023-02-28T07:06:19;24.02;;;14.48;;
51298;SDS011;37382;45.192;9.790;2023-02-28T07:08:50;23.05;;;14.23;;
51298;SDS011;37382;45.192;9.790;2023-02-28T07:11:20;40.78;;;19.77;;
51298;SDS011;37382;45.192;9.790;2023-02-28T07:13:53;48.65;;;21.73;;
51298;SDS011;37382;45.192;9.790;2023-02-28T07:16:24;19.85;;;11.88;;
51298;SDS011;37382;45.192;9.790;2023-02-28T07:18:52;46.00;;;22.05;;
51298;SDS011;37382;45.192;9.790;2023-02-28T07:21:21;28.88;;;14.65;;
51298;SDS011;37382;45.192;9.790;2023-02-28T07:23:49;21.92;;;13.27;;
51298;SDS011;37382;45.192;9.790;2023-02-28T07:26:18;20.42;;;11.57;;
51298;SDS011;37382;45.192;9.790;2023-02-28T07:28:46;157.02;;;61.40;;
51298;SDS011;37382;45.192;9.790;2023-02-28T07:31:15;149.73;;;67.03;;
51298;SDS011;37382;45.192;9.790;2023-02-28T07:33:44;29.70;;;16.58;;
51298;SDS011;37382;45.192;9.790;2023-02-28T07:36:14;33.78;;;18.63;;
51298;SDS011;37382;45.192;9.790;2023-02-28T07:38:43;29.00;;;14.52;;
51298;SDS011;37382;45.192;9.790;2023-02-28T07:41:15;22.65;;;12.93;;
51298;SDS011;37382;45.192;9.790;2023-02-28T07:43:44;40.83;;;18.42;;
51298;SDS011;37382;45.192;9.790;2023-02-28T07:46:12;37.30;;;19.67;;
51298;SDS011;37382;45.192;9.790;2023-02-28T07:48:42;26.20;;;13.82;;
51298;SDS011;37382;45.192;9.790;2023-02-28T07:51:11;21.75;;;13.38;;
51298;SDS011;37382;45.192;9.790;2023-02-28T07:53:38;24.05;;;15.20;;
51298;SDS011;37382;45.192;9.790;2023-02-28T07:56:05;27.13;;;15.55;;
51298;SDS011;37382;45.192;9.790;2023-02-28T07:58:33;20.13;;;13.98;;
51298;SDS011;37382;45.192;9.790;2023-02-28T08:01:05;21.10;;;12.65;;
51298;SDS011;37382;45.192;9.790;2023-02-28T08:03:34;17.77;;;13.00;;
51298;SDS011;37382;45.192;9.790;2023-02-28T08:06:03;29.98;;;17.88;;
51298;SDS011;37382;45.192;9.790;2023-02-28T08:08:31;30.17;;;18.67;;
51298;SDS011;37382;45.192;9.790;2023-02-28T08:11:02;23.52;;;15.45;;
51298;SDS011;37382;45.192;9.790;2023-02-28T08:13:30;25.27;;;12.70;;
51298;SDS011;37382;45.192;9.790;2023-02-28T08:15:58;24.63;;;14.38;;
51298;SDS011;37382;45.192;9.790;2023-02-28T08:18:28;21.83;;;13.43;;
51298;SDS011;37382;45.192;9.790;2023-02-28T08:20:56;22.65;;;14.32;;
51298;SDS011;37382;45.192;9.790;2023-02-28T08:23:24;21.88;;;13.35;;
51298;SDS011;37382;45.192;9.790;2023-02-28T08:25:55;19.55;;;12.10;;
51298;SDS011;37382;45.192;9.790;2023-02-28T08:28:23;21.05;;;13.50;;
51298;SDS011;37382;45.192;9.790;2023-02-28T08:30:53;24.20;;;13.02;;
51298;SDS011;37382;45.192;9.790;2023-02-28T08:33:21;20.20;;;13.25;;
51298;SDS011;37382;45.192;9.790;2023-02-28T08:35:53;23.83;;;12.35;;
51298;SDS011;37382;45.192;9.790;2023-02-28T08:38:22;15.45;;;11.10;;
51298;SDS011;37382;45.192;9.790;2023-02-28T08:40:57;17.42;;;11.40;;
51298;SDS011;37382;45.192;9.790;2023-02-28T08:43:29;19.17;;;10.55;;
51298;SDS011;37382;45.192;9.790;2023-02-28T08:45:57;18.65;;;9.13;;
51298;SDS011;37382;45.192;9.790;2023-02-28T08:48:25;15.10;;;8.60;;
51298;SDS011;37382;45.192;9.790;2023-02-28T08:51:04;18.63;;;9.77;;
51298;SDS011;37382;45.192;9.790;2023-02-28T08:53:43;21.30;;;11.32;;
51298;SDS011;37382;45.192;9.790;2023-02-28T08:56:12;20.00;;;10.57;;
51298;SDS011;37382;45.192;9.790;2023-02-28T08:58:41;16.90;;;10.27;;
51298;SDS011;37382;45.192;9.790;2023-02-28T09:01:10;15.80;;;10.23;;
51298;SDS011;37382;45.192;9.790;2023-02-28T09:03:40;14.38;;;9.50;;
51298;SDS011;37382;45.192;9.790;2023-02-28T09:06:09;15.90;;;8.48;;
51298;SDS011;37382;45.192;9.790;2023-02-28T09:08:37;15.82;;;8.48;;
51298;SDS011;37382;45.192;9.790;2023-02-28T09:11:05;9.75;;;7.82;;
51298;SDS011;37382;45.192;9.790;2023-02-28T09:13:34;13.68;;;8.50;;
51298;SDS011;37382;45.192;9.790;2023-02-28T09:16:02;25.80;;;9.10;;
51298;SDS011;37382;45.192;9.790;2023-02-28T09:18:33;24.02;;;8.82;;
51298;SDS011;37382;45.192;9.790;2023-02-28T09:21:02;11.77;;;8.52;;
51298;SDS011;37382;45.192;9.790;2023-02-28T09:23:32;15.25;;;9.50;;
51298;SDS011;37382;45.192;9.790;2023-02-28T09:25:59;17.83;;;9.23;;
51298;SDS011;37382;45.192;9.790;2023-02-28T09:28:27;21.67;;;12.00;;
51298;SDS011;37382;45.192;9.790;2023-02-28T09:30:55;15.75;;;10.23;;
51298;SDS011;37382;45.192;9.790;2023-02-28T09:33:24;16.38;;;10.73;;
51298;SDS011;37382;45.192;9.790;2023-02-28T09:35:57;13.57;;;9.35;;
51298;SDS011;37382;45.192;9.790;2023-02-28T09:38:29;13.48;;;8.70;;
51298;SDS011;37382;45.192;9.790;2023-02-28T09:41:01;11.52;;;8.10;;
51298;SDS011;37382;45.192;9.790;2023-02-28T09:43:34;12.90;;;7.60;;
51298;SDS011;37382;45.192;9.790;2023-02-28T09:48:43;17.05;;;9.00;;
51298;SDS011;37382;45.192;9.790;2023-02-28T09:54:19;13.90;;;8.20;;
51298;SDS011;37382;45.192;9.790;2023-02-28T10:05:15;23.58;;;13.00;;
51298;SDS011;37382;45.192;9.790;2023-02-28T10:10:33;20.15;;;13.48;;
51298;SDS011;37382;45.192;9.790;2023-02-28T10:13:13;15.02;;;7.90;;
51298;SDS011;37382;45.192;9.790;2023-02-28T10:15:48;15.38;;;9.60;;
51298;SDS011;37382;45.192;9.790;2023-02-28T10:18:23;12.10;;;8.50;;
51298;SDS011;37382;45.192;9.790;2023-02-28T10:20:54;20.00;;;12.40;;
51298;SDS011;37382;45.192;9.790;2023-02-28T10:23:36;14.50;;;9.27;;
51298;SDS011;37382;45.192;9.790;2023-02-28T10:26:14;26.92;;;14.82;;
51298;SDS011;37382;45.192;9.790;2023-02-28T10:28:43;12.65;;;8.70;;
51298;SDS011;37382;45.192;9.790;2023-02-28T10:31:20;25.52;;;14.75;;
51298;SDS011;37382;45.192;9.790;2023-02-28T10:33:49;17.90;;;13.02;;
51298;SDS011;37382;45.192;9.790;2023-02-28T10:36:18;11.48;;;8.55;;
51298;SDS011;37382;45.192;9.790;2023-02-28T10:38:50;16.17;;;10.93;;
51298;SDS011;37382;45.192;9.790;2023-02-28T10:41:31;18.58;;;13.40;;
51298;SDS011;37382;45.192;9.790;2023-02-28T10:44:20;18.13;;;11.25;;
51298;SDS011;37382;45.192;9.790;2023-02-28T10:46:49;14.68;;;8.18;;
51298;SDS011;37382;45.192;9.790;2023-02-28T10:49:22;14.02;;;9.40;;
51298;SDS011;37382;45.192;9.790;2023-02-28T10:51:52;17.58;;;9.63;;
51298;SDS011;37382;45.192;9.790;2023-02-28T10:54:30;13.55;;;9.82;;
51298;SDS011;37382;45.192;9.790;2023-02-28T10:57:18;14.02;;;9.35;;
51298;SDS011;37382;45.192;9.790;2023-02-28T10:59:52;9.95;;;7.32;;
51298;SDS011;37382;45.192;9.790;2023-02-28T11:02:34;14.52;;;8.07;;
51298;SDS011;37382;45.192;9.790;2023-02-28T11:08:03;13.43;;;8.63;;
51298;SDS011;37382;45.192;9.790;2023-02-28T11:10:38;15.98;;;8.63;;
51298;SDS011;37382;45.192;9.790;2023-02-28T11:13:06;13.32;;;8.77;;
51298;SDS011;37382;45.192;9.790;2023-02-28T11:15:33;12.27;;;8.60;;
51298;SDS011;37382;45.192;9.790;2023-02-28T11:18:24;14.95;;;8.80;;
51298;SDS011;37382;45.192;9.790;2023-02-28T11:20:57;14.50;;;9.18;;
51298;SDS011;37382;45.192;9.790;2023-02-28T11:23:29;19.10;;;12.27;;
51298;SDS011;37382;45.192;9.790;2023-02-28T11:26:00;15.60;;;10.37;;
51298;SDS011;37382;45.192;9.790;2023-02-28T11:33:54;11.38;;;8.82;;
51298;SDS011;37382;45.192;9.790;2023-02-28T11:36:27;13.10;;;8.95;;
51298;SDS011;37382;45.192;9.790;2023-02-28T11:39:00;12.85;;;9.10;;
51298;SDS011;37382;45.192;9.790;2023-02-28T11:46:54;14.32;;;8.75;;
51298;SDS011;37382;45.192;9.790;2023-02-28T11:49:30;14.48;;;9.07;;
51298;SDS011;37382;45.192;9.790;2023-02-28T11:51:59;16.27;;;9.13;;
51298;SDS011;37382;45.192;9.790;2023-02-28T12:02:24;14.23;;;9.27;;
51298;SDS011;37382;45.192;9.790;2023-02-28T12:10:44;13.00;;;9.65;;
51298;SDS011;37382;45.192;9.790;2023-02-28T12:13:24;14.05;;;9.13;;
51298;SDS011;37382;45.192;9.790;2023-02-28T12:25:02;16.98;;;10.05;;
51298;SDS011;37382;45.192;9.790;2023-02-28T12:27:50;16.02;;;9.48;;
51298;SDS011;37382;45.192;9.790;2023-02-28T12:30:23;13.30;;;10.10;;
51298;SDS011;37382;45.192;9.790;2023-02-28T12:36:08;20.92;;;10.23;;
51298;SDS011;37382;45.192;9.790;2023-02-28T12:38:24;17.25;;;12.93;;
51298;SDS011;37382;45.192;9.790;2023-02-28T12:41:02;14.93;;;10.52;;
51298;SDS011;37382;45.192;9.790;2023-02-28T12:43:37;14.25;;;11.00;;
51298;SDS011;37382;45.192;9.790;2023-02-28T12:46:12;12.10;;;9.25;;
51298;SDS011;37382;45.192;9.790;2023-02-28T12:48:48;19.45;;;10.48;;
51298;SDS011;37382;45.192;9.790;2023-02-28T12:51:20;16.55;;;10.63;;
51298;SDS011;37382;45.192;9.790;2023-02-28T12:54:09;13.48;;;9.48;;
51298;SDS011;37382;45.192;9.790;2023-02-28T13:05:23;12.52;;;9.00;;
51298;SDS011;37382;45.192;9.790;2023-02-28T13:11:05;15.13;;;9.80;;
51298;SDS011;37382;45.192;9.790;2023-02-28T13:13:47;12.77;;;8.98;;
51298;SDS011;37382;45.192;9.790;2023-02-28T13:16:15;16.42;;;10.55;;
51298;SDS011;37382;45.192;9.790;2023-02-28T13:18:43;15.50;;;9.50;;
51298;SDS011;37382;45.192;9.790;2023-02-28T13:21:24;13.48;;;10.32;;
51298;SDS011;37382;45.192;9.790;2023-02-28T13:27:10;13.10;;;9.70;;
51298;SDS011;37382;45.192;9.790;2023-02-28T13:34:36;13.80;;;8.95;;
51298;SDS011;37382;45.192;9.790;2023-02-28T13:47:43;17.13;;;10.82;;
51298;SDS011;37382;45.192;9.790;2023-02-28T13:55:46;12.68;;;9.73;;
51298;SDS011;37382;45.192;9.790;2023-02-28T14:01:22;17.83;;;9.90;;
51298;SDS011;37382;45.192;9.790;2023-02-28T14:07:00;15.20;;;10.25;;
51298;SDS011;37382;45.192;9.790;2023-02-28T14:18:16;14.60;;;9.18;;
51298;SDS011;37382;45.192;9.790;2023-02-28T14:20:48;14.02;;;9.05;;
51298;SDS011;37382;45.192;9.790;2023-02-28T14:26:00;13.07;;;8.55;;
51298;SDS011;37382;45.192;9.790;2023-02-28T14:31:27;10.60;;;9.15;;
51298;SDS011;37382;45.192;9.790;2023-02-28T14:34:17;52.70;;;32.67;;
51298;SDS011;37382;45.192;9.790;2023-02-28T14:37:00;12.55;;;10.52;;
51298;SDS011;37382;45.192;9.790;2023-02-28T14:39:29;10.73;;;9.13;;
51298;SDS011;37382;45.192;9.790;2023-02-28T14:41:58;15.63;;;8.98;;
51298;SDS011;37382;45.192;9.790;2023-02-28T14:44:30;15.85;;;10.27;;
51298;SDS011;37382;45.192;9.790;2023-02-28T14:47:00;14.88;;;9.60;;
51298;SDS011;37382;45.192;9.790;2023-02-28T14:49:36;12.15;;;9.82;;
51298;SDS011;37382;45.192;9.790;2023-02-28T14:54:37;11.18;;;9.10;;
51298;SDS011;37382;45.192;9.790;2023-02-28T14:57:05;15.93;;;10.43;;
51298;SDS011;37382;45.192;9.790;2023-02-28T14:59:33;14.80;;;9.43;;
51298;SDS011;37382;45.192;9.790;2023-02-28T15:02:18;13.15;;;10.05;;
51298;SDS011;37382;45.192;9.790;2023-02-28T15:04:55;14.77;;;9.75;;
51298;SDS011;37382;45.192;9.790;2023-02-28T15:07:25;13.65;;;9.75;;
51298;SDS011;37382;45.192;9.790;2023-02-28T15:10:09;15.50;;;12.35;;
51298;SDS011;37382;45.192;9.790;2023-02-28T15:12:56;22.23;;;13.93;;
51298;SDS011;37382;45.192;9.790;2023-02-28T15:15:51;17.50;;;10.80;;
51298;SDS011;37382;45.192;9.790;2023-02-28T15:18:31;17.90;;;11.30;;
51298;SDS011;37382;45.192;9.790;2023-02-28T15:21:22;16.88;;;12.00;;
51298;SDS011;37382;45.192;9.790;2023-02-28T15:24:38;18.15;;;12.57;;
51298;SDS011;37382;45.192;9.790;2023-02-28T15:27:02;20.02;;;12.30;;
51298;SDS011;37382;45.192;9.790;2023-02-28T15:32:05;13.87;;;11.47;;
51298;SDS011;37382;45.192;9.790;2023-02-28T15:34:42;14.32;;;10.95;;
51298;SDS011;37382;45.192;9.790;2023-02-28T15:39:54;21.10;;;13.13;;
51298;SDS011;37382;45.192;9.790;2023-02-28T15:42:23;16.90;;;11.55;;
51298;SDS011;37382;45.192;9.790;2023-02-28T15:44:56;18.40;;;11.23;;
51298;SDS011;37382;45.192;9.790;2023-02-28T15:47:26;15.68;;;10.73;;
51298;SDS011;37382;45.192;9.790;2023-02-28T15:49:56;14.98;;;10.93;;
51298;SDS011;37382;45.192;9.790;2023-02-28T15:54:59;15.65;;;10.73;;
51298;SDS011;37382;45.192;9.790;2023-02-28T15:57:43;15.73;;;10.95;;
51298;SDS011;37382;45.192;9.790;2023-02-28T16:00:14;13.52;;;11.00;;
51298;SDS011;37382;45.192;9.790;2023-02-28T16:02:45;15.77;;;11.57;;
51298;SDS011;37382;45.192;9.790;2023-02-28T16:05:29;19.67;;;11.05;;
51298;SDS011;37382;45.192;9.790;2023-02-28T16:08:01;18.05;;;11.40;;
51298;SDS011;37382;45.192;9.790;2023-02-28T16:10:40;12.73;;;10.93;;
51298;SDS011;37382;45.192;9.790;2023-02-28T16:13:08;15.25;;;11.32;;
51298;SDS011;37382;45.192;9.790;2023-02-28T16:15:41;15.75;;;12.02;;
51298;SDS011;37382;45.192;9.790;2023-02-28T16:18:11;19.63;;;13.40;;
51298;SDS011;37382;45.192;9.790;2023-02-28T16:20:39;27.95;;;17.77;;
51298;SDS011;37382;45.192;9.790;2023-02-28T16:23:06;21.65;;;14.35;;
51298;SDS011;37382;45.192;9.790;2023-02-28T16:25:36;16.15;;;11.48;;
51298;SDS011;37382;45.192;9.790;2023-02-28T16:28:19;16.50;;;11.95;;
51298;SDS011;37382;45.192;9.790;2023-02-28T16:30:51;19.98;;;12.77;;
51298;SDS011;37382;45.192;9.790;2023-02-28T16:33:19;16.55;;;11.73;;
51298;SDS011;37382;45.192;9.790;2023-02-28T16:35:46;17.67;;;12.43;;
51298;SDS011;37382;45.192;9.790;2023-02-28T16:38:14;22.13;;;11.50;;
51298;SDS011;37382;45.192;9.790;2023-02-28T16:40:42;20.52;;;13.38;;
51298;SDS011;37382;45.192;9.790;2023-02-28T16:43:13;19.77;;;13.40;;
51298;SDS011;37382;45.192;9.790;2023-02-28T16:45:44;23.70;;;13.43;;
51298;SDS011;37382;45.192;9.790;2023-02-28T16:48:13;19.58;;;13.60;;
51298;SDS011;37382;45.192;9.790;2023-02-28T16:50:42;22.98;;;14.32;;
51298;SDS011;37382;45.192;9.790;2023-02-28T16:53:13;21.13;;;14.50;;
51298;SDS011;37382;45.192;9.790;2023-02-28T16:55:40;20.08;;;13.60;;
51298;SDS011;37382;45.192;9.790;2023-02-28T16:58:10;18.77;;;13.77;;
51298;SDS011;37382;45.192;9.790;2023-02-28T17:00:42;21.02;;;15.30;;
51298;SDS011;37382;45.192;9.790;2023-02-28T17:03:16;20.70;;;15.02;;
51298;SDS011;37382;45.192;9.790;2023-02-28T17:05:59;23.45;;;14.52;;
51298;SDS011;37382;45.192;9.790;2023-02-28T17:08:27;21.52;;;15.07;;
51298;SDS011;37382;45.192;9.790;2023-02-28T17:10:57;25.08;;;16.63;;
51298;SDS011;37382;45.192;9.790;2023-02-28T17:13:26;24.08;;;17.02;;
51298;SDS011;37382;45.192;9.790;2023-02-28T17:15:54;34.40;;;20.10;;
51298;SDS011;37382;45.192;9.790;2023-02-28T17:18:21;30.42;;;17.95;;
51298;SDS011;37382;45.192;9.790;2023-02-28T17:20:49;27.38;;;18.27;;
51298;SDS011;37382;45.192;9.790;2023-02-28T17:23:16;26.85;;;17.80;;
51298;SDS011;37382;45.192;9.790;2023-02-28T17:25:43;28.08;;;18.63;;
51298;SDS011;37382;45.192;9.790;2023-02-28T17:28:23;27.95;;;18.60;;
51298;SDS011;37382;45.192;9.790;2023-02-28T17:30:52;25.52;;;17.83;;
51298;SDS011;37382;45.192;9.790;2023-02-28T17:33:20;37.28;;;22.50;;
51298;SDS011;37382;45.192;9.790;2023-02-28T17:35:48;31.58;;;18.48;;
51298;SDS011;37382;45.192;9.790;2023-02-28T17:38:16;40.47;;;23.92;;
51298;SDS011;37382;45.192;9.790;2023-02-28T17:40:45;31.35;;;20.25;;
51298;SDS011;37382;45.192;9.790;2023-02-28T17:43:12;41.50;;;23.45;;
51298;SDS011;37382;45.192;9.790;2023-02-28T17:45:41;58.00;;;33.95;;
51298;SDS011;37382;45.192;9.790;2023-02-28T17:48:09;67.32;;;40.25;;
51298;SDS011;37382;45.192;9.790;2023-02-28T17:50:38;50.97;;;33.55;;
51298;SDS011;37382;45.192;9.790;2023-02-28T17:53:05;43.63;;;27.75;;
51298;SDS011;37382;45.192;9.790;2023-02-28T17:55:33;40.42;;;24.70;;
51298;SDS011;37382;45.192;9.790;2023-02-28T17:58:01;36.50;;;22.55;;
51298;SDS011;37382;45.192;9.790;2023-02-28T18:00:30;26.88;;;16.23;;
51298;SDS011;37382;45.192;9.790;2023-02-28T18:03:00;26.30;;;17.58;;
51298;SDS011;37382;45.192;9.790;2023-02-28T18:05:28;21.05;;;15.65;;
51298;SDS011;37382;45.192;9.790;2023-02-28T18:07:55;28.17;;;18.30;;
51298;SDS011;37382;45.192;9.790;2023-02-28T18:10:23;30.80;;;19.27;;
51298;SDS011;37382;45.192;9.790;2023-02-28T18:12:51;29.33;;;18.98;;
51298;SDS011;37382;45.192;9.790;2023-02-28T18:15:21;24.65;;;17.17;;
51298;SDS011;37382;45.192;9.790;2023-02-28T18:17:49;32.22;;;19.77;;
51298;SDS011;37382;45.192;9.790;2023-02-28T18:20:17;45.08;;;26.05;;
51298;SDS011;37382;45.192;9.790;2023-02-28T18:22:45;37.00;;;21.58;;
51298;SDS011;37382;45.192;9.790;2023-02-28T18:25:13;41.55;;;25.95;;
51298;SDS011;37382;45.192;9.790;2023-02-28T18:27:43;36.63;;;22.20;;
51298;SDS011;37382;45.192;9.790;2023-02-28T18:30:20;31.50;;;21.67;;
51298;SDS011;37382;45.192;9.790;2023-02-28T18:32:48;47.42;;;26.67;;
51298;SDS011;37382;45.192;9.790;2023-02-28T18:35:16;49.83;;;30.23;;
51298;SDS011;37382;45.192;9.790;2023-02-28T18:38:05;42.08;;;23.85;;
51298;SDS011;37382;45.192;9.790;2023-02-28T18:40:32;46.92;;;27.48;;
51298;SDS011;37382;45.192;9.790;2023-02-28T18:43:00;48.30;;;29.88;;
51298;SDS011;37382;45.192;9.790;2023-02-28T18:45:29;74.63;;;48.38;;
51298;SDS011;37382;45.192;9.790;2023-02-28T18:47:57;54.53;;;37.85;;
51298;SDS011;37382;45.192;9.790;2023-02-28T18:50:24;51.55;;;35.28;;
51298;SDS011;37382;45.192;9.790;2023-02-28T18:52:52;44.15;;;26.77;;
51298;SDS011;37382;45.192;9.790;2023-02-28T18:55:19;34.17;;;22.38;;
51298;SDS011;37382;45.192;9.790;2023-02-28T18:57:48;31.77;;;19.92;;
51298;SDS011;37382;45.192;9.790;2023-02-28T19:00:16;30.33;;;21.73;;
51298;SDS011;37382;45.192;9.790;2023-02-28T19:02:48;37.17;;;25.60;;
51298;SDS011;37382;45.192;9.790;2023-02-28T19:05:17;40.15;;;26.02;;
51298;SDS011;37382;45.192;9.790;2023-02-28T19:07:45;38.90;;;24.08;;
51298;SDS011;37382;45.192;9.790;2023-02-28T19:10:13;33.83;;;23.70;;
51298;SDS011;37382;45.192;9.790;2023-02-28T19:12:41;43.45;;;28.00;;
51298;SDS011;37382;45.192;9.790;2023-02-28T19:15:09;50.35;;;31.60;;
51298;SDS011;37382;45.192;9.790;2023-02-28T19:17:37;43.55;;;28.45;;
51298;SDS011;37382;45.192;9.790;2023-02-28T19:20:06;45.67;;;27.63;;
51298;SDS011;37382;45.192;9.790;2023-02-28T19:22:35;37.88;;;25.70;;
51298;SDS011;37382;45.192;9.790;2023-02-28T19:25:04;40.38;;;24.00;;
51298;SDS011;37382;45.192;9.790;2023-02-28T19:27:32;42.53;;;24.13;;
51298;SDS011;37382;45.192;9.790;2023-02-28T19:30:01;55.65;;;23.70;;
51298;SDS011;37382;45.192;9.790;2023-02-28T19:32:30;37.10;;;22.48;;
51298;SDS011;37382;45.192;9.790;2023-02-28T19:34:58;40.88;;;25.33;;
51298;SDS011;37382;45.192;9.790;2023-02-28T19:37:25;37.67;;;25.23;;
51298;SDS011;37382;45.192;9.790;2023-02-28T19:39:53;37.08;;;24.83;;
51298;SDS011;37382;45.192;9.790;2023-02-28T19:42:23;42.15;;;27.75;;
51298;SDS011;37382;45.192;9.790;2023-02-28T19:44:50;48.85;;;29.52;;
51298;SDS011;37382;45.192;9.790;2023-02-28T19:47:18;52.78;;;28.30;;
51298;SDS011;37382;45.192;9.790;2023-02-28T19:49:46;52.33;;;28.23;;
51298;SDS011;37382;45.192;9.790;2023-02-28T19:52:15;47.88;;;27.42;;
51298;SDS011;37382;45.192;9.790;2023-02-28T19:54:42;47.88;;;26.70;;
51298;SDS011;37382;45.192;9.790;2023-02-28T19:57:10;49.60;;;28.60;;
51298;SDS011;37382;45.192;9.790;2023-02-28T19:59:38;42.05;;;26.75;;
51298;SDS011;37382;45.192;9.790;2023-02-28T20:02:13;47.10;;;27.50;;
51298;SDS011;37382;45.192;9.790;2023-02-28T20:04:42;49.00;;;26.05;;
51298;SDS011;37382;45.192;9.790;2023-02-28T20:07:13;52.13;;;30.73;;
51298;SDS011;37382;45.192;9.790;2023-02-28T20:09:42;65.32;;;37.42;;
51298;SDS011;37382;45.192;9.790;2023-02-28T20:12:11;68.82;;;39.83;;
51298;SDS011;37382;45.192;9.790;2023-02-28T20:14:50;63.22;;;35.15;;
51298;SDS011;37382;45.192;9.790;2023-02-28T20:17:20;59.97;;;35.58;;
51298;SDS011;37382;45.192;9.790;2023-02-28T20:19:48;55.78;;;35.17;;
51298;SDS011;37382;45.192;9.790;2023-02-28T20:22:17;54.20;;;32.17;;
51298;SDS011;37382;45.192;9.790;2023-02-28T20:24:45;49.55;;;33.72;;
51298;SDS011;37382;45.192;9.790;2023-02-28T20:27:13;42.45;;;25.75;;
51298;SDS011;37382;45.192;9.790;2023-02-28T20:29:40;42.60;;;26.48;;
51298;SDS011;37382;45.192;9.790;2023-02-28T20:32:08;49.60;;;26.45;;
51298;SDS011;37382;45.192;9.790;2023-02-28T20:34:36;41.90;;;24.30;;
51298;SDS011;37382;45.192;9.790;2023-02-28T20:37:03;48.90;;;25.33;;
51298;SDS011;37382;45.192;9.790;2023-02-28T20:39:31;53.35;;;26.98;;
51298;SDS011;37382;45.192;9.790;2023-02-28T20:41:58;49.33;;;26.42;;
51298;SDS011;37382;45.192;9.790;2023-02-28T20:44:26;46.85;;;25.75;;
51298;SDS011;37382;45.192;9.790;2023-02-28T20:46:54;39.40;;;25.55;;
51298;SDS011;37382;45.192;9.790;2023-02-28T20:49:22;58.38;;;28.48;;
51298;SDS011;37382;45.192;9.790;2023-02-28T20:51:49;51.10;;;26.40;;
51298;SDS011;37382;45.192;9.790;2023-02-28T20:54:16;42.58;;;24.83;;
51298;SDS011;37382;45.192;9.790;2023-02-28T20:56:45;42.13;;;24.25;;
51298;SDS011;37382;45.192;9.790;2023-02-28T20:59:12;49.40;;;23.60;;
51298;SDS011;37382;45.192;9.790;2023-02-28T21:01:40;37.75;;;23.05;;
51298;SDS011;37382;45.192;9.790;2023-02-28T21:04:11;47.72;;;24.20;;
51298;SDS011;37382;45.192;9.790;2023-02-28T21:06:39;49.15;;;31.17;;
51298;SDS011;37382;45.192;9.790;2023-02-28T21:09:13;55.63;;;34.97;;
51298;SDS011;37382;45.192;9.790;2023-02-28T21:11:42;51.58;;;30.13;;
51298;SDS011;37382;45.192;9.790;2023-02-28T21:14:12;47.10;;;27.35;;
51298;SDS011;37382;45.192;9.790;2023-02-28T21:16:41;43.67;;;26.15;;
51298;SDS011;37382;45.192;9.790;2023-02-28T21:19:10;45.40;;;26.05;;
51298;SDS011;37382;45.192;9.790;2023-02-28T21:21:40;46.08;;;27.75;;
51298;SDS011;37382;45.192;9.790;2023-02-28T21:24:12;46.15;;;26.77;;
51298;SDS011;37382;45.192;9.790;2023-02-28T21:26:42;41.58;;;27.30;;
51298;SDS011;37382;45.192;9.790;2023-02-28T21:29:10;52.67;;;27.10;;
51298;SDS011;37382;45.192;9.790;2023-02-28T21:31:39;45.03;;;28.10;;
51298;SDS011;37382;45.192;9.790;2023-02-28T21:34:07;47.90;;;27.25;;
51298;SDS011;37382;45.192;9.790;2023-02-28T21:36:38;48.45;;;27.65;;
51298;SDS011;37382;45.192;9.790;2023-02-28T21:39:08;56.50;;;31.77;;
51298;SDS011;37382;45.192;9.790;2023-02-28T21:44:08;40.42;;;24.98;;
51298;SDS011;37382;45.192;9.790;2023-02-28T21:46:36;42.50;;;25.50;;
51298;SDS011;37382;45.192;9.790;2023-02-28T21:49:05;40.35;;;27.02;;
51298;SDS011;37382;45.192;9.790;2023-02-28T21:51:32;47.72;;;28.70;;
51298;SDS011;37382;45.192;9.790;2023-02-28T21:54:00;46.72;;;27.50;;
51298;SDS011;37382;45.192;9.790;2023-02-28T21:56:28;49.97;;;27.60;;
51298;SDS011;37382;45.192;9.790;2023-02-28T21:58:58;41.75;;;27.50;;